createdAt,value
2023-01-19T00:00:22.625Z,3.94
2023-01-19T00:03:24.485Z,3.77
2023-01-19T00:06:26.485Z,3.95
2023-01-19T00:09:33.400Z,3.87
2023-01-19T00:12:35.374Z,3.94
2023-01-19T00:15:37.192Z,3.84
2023-01-19T00:18:39.995Z,3.86
2023-01-19T00:21:42.081Z,3.85
2023-01-19T00:24:45.065Z,3.95
2023-01-19T00:27:49.495Z,4.11
2023-01-19T00:30:52.233Z,4.03
2023-01-19T00:33:54.240Z,4.08
2023-01-19T00:36:56.099Z,4.12
2023-01-19T00:39:57.950Z,4.06
2023-01-19T00:43:00.625Z,4.01
2023-01-19T00:46:02.974Z,3.93
2023-01-19T00:49:05.556Z,4.01
2023-01-19T00:52:07.420Z,4.02
2023-01-19T00:55:11.602Z,4.11
2023-01-19T00:58:13.507Z,4.02
2023-01-19T01:01:15.451Z,4.15
2023-01-19T01:04:17.636Z,4.22
2023-01-19T01:07:19.500Z,4.36
2023-01-19T01:10:25.212Z,4.36
2023-01-19T01:13:28.166Z,4.43
2023-01-19T01:16:30.285Z,4.65
2023-01-19T01:19:32.198Z,4.60
2023-01-19T01:22:34.069Z,4.52
2023-01-19T01:25:37.912Z,4.52
2023-01-19T01:28:40.139Z,4.35
2023-01-19T01:31:42.085Z,4.41
2023-01-19T01:34:44.011Z,4.36
2023-01-19T01:38:02.972Z,4.51
2023-01-19T01:41:05.185Z,4.51
2023-01-19T01:44:49.723Z,4.40
2023-01-19T01:47:54.082Z,4.32
2023-01-19T01:51:24.194Z,4.13
2023-01-19T01:54:32.294Z,4.28
2023-01-19T01:57:41.937Z,4.10
2023-01-19T02:01:02.457Z,4.16
2023-01-19T02:04:04.484Z,4.17
2023-01-19T02:07:24.993Z,4.09
2023-01-19T02:10:45.436Z,4.17
2023-01-19T02:13:47.758Z,4.21
2023-01-19T02:16:49.795Z,4.05
2023-01-19T02:19:51.721Z,4.06
2023-01-19T02:22:59.373Z,4.24
2023-01-19T02:26:02.270Z,4.05
2023-01-19T02:29:07.860Z,4.16
2023-01-19T02:32:09.784Z,4.13
2023-01-19T02:35:13.059Z,4.06
2023-01-19T02:38:16.361Z,4.10
2023-01-19T02:41:25.499Z,3.96
2023-01-19T02:44:29.470Z,4.15
2023-01-19T02:47:39.012Z,4.11
2023-01-19T02:50:46.967Z,4.21
2023-01-19T02:53:51.844Z,4.22
2023-01-19T02:57:14.033Z,4.26
2023-01-19T03:00:28.139Z,4.01
2023-01-19T03:03:34.979Z,4.10
2023-01-19T03:06:47.061Z,4.14
2023-01-19T03:10:02.856Z,4.08
2023-01-19T03:13:10.636Z,4.18
2023-01-19T03:16:42.837Z,4.14
2023-01-19T03:19:48.666Z,4.18
2023-01-19T03:22:57.487Z,4.13
2023-01-19T03:26:01.033Z,3.99
2023-01-19T03:29:03.855Z,3.90
2023-01-19T03:32:12.506Z,3.95
2023-01-19T03:35:17.825Z,4.08
2023-01-19T03:38:26.247Z,3.97
2023-01-19T03:41:29.781Z,4.01
2023-01-19T03:44:34.923Z,4.13
2023-01-19T03:47:36.792Z,3.95
2023-01-19T03:50:38.871Z,3.98
2023-01-19T03:53:41.817Z,4.04
2023-01-19T03:56:44.759Z,4.07
2023-01-19T03:59:46.601Z,4.06
2023-01-19T04:02:48.643Z,4.20
2023-01-19T04:05:50.509Z,4.24
2023-01-19T04:08:52.530Z,4.11
2023-01-19T04:11:54.615Z,4.16
2023-01-19T04:14:56.518Z,3.95
2023-01-19T04:17:59.627Z,3.85
2023-01-19T04:21:06.633Z,4.01
2023-01-19T04:24:10.286Z,3.93
2023-01-19T04:27:12.267Z,3.98
2023-01-19T04:30:14.506Z,3.95
2023-01-19T04:33:16.409Z,4.01
2023-01-19T04:36:18.406Z,3.99
2023-01-19T04:39:20.428Z,3.94
2023-01-19T04:42:23.093Z,4.19
2023-01-19T04:46:00.560Z,4.23
2023-01-19T04:49:02.453Z,4.10
2023-01-19T04:52:07.506Z,4.14
2023-01-19T04:55:10.205Z,4.20
2023-01-19T04:58:12.654Z,4.09
2023-01-19T05:01:14.570Z,3.81
2023-01-19T05:04:16.460Z,3.84
2023-01-19T05:07:18.380Z,3.90
2023-01-19T05:10:20.544Z,3.92
2023-01-19T05:13:22.438Z,3.72
2023-01-19T05:16:24.370Z,3.85
2023-01-19T05:23:35.349Z,3.98
2023-01-19T05:26:37.526Z,3.97
2023-01-19T05:29:39.347Z,3.98
2023-01-19T05:32:41.267Z,4.18
2023-01-19T05:35:43.194Z,4.28
2023-01-19T05:38:45.792Z,4.36
2023-01-19T05:41:47.817Z,4.31
2023-01-19T05:44:49.737Z,4.39
2023-01-19T05:47:51.601Z,4.01
2023-01-19T05:50:57.908Z,3.96
2023-01-19T05:54:01.087Z,4.06
2023-01-19T05:57:03.658Z,4.26
2023-01-19T06:00:06.432Z,3.97
2023-01-19T06:03:11.065Z,4.13
2023-01-19T06:06:15.000Z,4.12
2023-01-19T06:09:17.520Z,4.06
2023-01-19T06:12:19.647Z,4.16
2023-01-19T06:15:21.569Z,4.23
2023-01-19T06:18:23.645Z,4.15
2023-01-19T06:21:25.664Z,4.13
2023-01-19T06:24:27.972Z,3.93
2023-01-19T06:27:30.151Z,3.96
2023-01-19T06:30:32.029Z,4.13
2023-01-19T06:33:35.561Z,4.00
2023-01-19T06:36:38.483Z,3.96
2023-01-19T06:39:41.124Z,3.92
2023-01-19T06:42:42.980Z,3.61
2023-01-19T06:45:46.103Z,3.87
2023-01-19T06:48:48.200Z,3.71
2023-01-19T06:51:50.453Z,3.88
2023-01-19T06:54:52.273Z,3.63
2023-01-19T06:57:58.807Z,3.58
2023-01-19T07:01:06.309Z,3.81
2023-01-19T07:04:08.613Z,3.80
2023-01-19T07:07:10.485Z,3.72
2023-01-19T07:10:15.723Z,3.60
2023-01-19T07:13:17.797Z,3.48
2023-01-19T07:16:20.016Z,3.66
2023-01-19T07:19:21.893Z,3.55
2023-01-19T07:22:24.380Z,3.68
2023-01-19T07:25:27.103Z,3.67
2023-01-19T07:28:29.990Z,3.67
2023-01-19T07:31:32.001Z,3.52
2023-01-19T07:34:34.640Z,3.45
2023-01-19T07:37:36.591Z,3.36
2023-01-19T07:40:38.531Z,3.45
2023-01-19T07:43:40.433Z,3.53
2023-01-19T07:46:43.367Z,3.34
2023-01-19T07:49:45.470Z,3.45
2023-01-19T07:52:48.386Z,3.44
2023-01-19T07:55:55.145Z,3.25
2023-01-19T07:58:57.841Z,3.49
2023-01-19T08:02:00.301Z,3.54
2023-01-19T08:05:02.913Z,3.37
2023-01-19T08:08:05.596Z,3.51
2023-01-19T08:11:08.580Z,3.37
2023-01-19T08:14:10.699Z,3.41
2023-01-19T08:17:14.045Z,3.47
2023-01-19T08:20:15.998Z,3.54
2023-01-19T08:23:18.680Z,3.52
2023-01-19T08:26:27.448Z,3.54
2023-01-19T08:29:31.887Z,3.40
2023-01-19T08:32:33.796Z,3.59
2023-01-19T08:35:41.864Z,3.60
2023-01-19T08:38:47.113Z,3.43
2023-01-19T08:41:48.948Z,3.64
2023-01-19T08:44:58.139Z,3.56
2023-01-19T08:48:01.229Z,3.56
2023-01-19T08:51:03.396Z,3.49
2023-01-19T08:54:05.513Z,3.50
2023-01-19T08:57:07.687Z,3.45
2023-01-19T09:00:11.264Z,3.62
2023-01-19T09:03:14.038Z,3.60
2023-01-19T09:06:18.445Z,3.61
2023-01-19T09:09:20.319Z,3.40
2023-01-19T09:12:22.260Z,3.67
2023-01-19T09:15:24.136Z,3.63
2023-01-19T09:18:26.146Z,3.66
2023-01-19T09:21:28.885Z,3.71
2023-01-19T09:24:30.914Z,3.91
2023-01-19T09:27:32.915Z,3.92
2023-01-19T09:30:37.341Z,3.93
2023-01-19T09:33:39.348Z,4.01
2023-01-19T09:36:41.201Z,4.07
2023-01-19T09:39:43.338Z,3.99
2023-01-19T09:42:53.734Z,4.05
2023-01-19T09:45:59.392Z,4.10
2023-01-19T09:49:14.589Z,4.16
2023-01-19T09:52:18.431Z,3.97
2023-01-19T09:55:25.508Z,3.84
2023-01-19T09:58:28.896Z,3.88
2023-01-19T10:01:57.749Z,4.05
2023-01-19T10:05:03.725Z,4.01
2023-01-19T10:08:18.348Z,4.13
2023-01-19T10:11:42.049Z,4.04
2023-01-19T10:15:15.201Z,3.84
2023-01-19T10:22:24.554Z,3.88
2023-01-19T10:25:27.439Z,3.86
2023-01-19T10:28:30.093Z,4.01
2023-01-19T10:31:33.574Z,3.81
2023-01-19T10:34:35.781Z,4.00
2023-01-19T10:37:38.439Z,3.97
2023-01-19T10:40:55.221Z,3.90
2023-01-19T10:44:03.213Z,3.82
2023-01-19T10:47:11.767Z,3.55
2023-01-19T10:50:32.191Z,3.50
2023-01-19T10:53:34.464Z,3.51
2023-01-19T10:56:38.527Z,3.64
2023-01-19T10:59:51.548Z,3.61
2023-01-19T11:02:53.532Z,3.71
2023-01-19T11:06:13.654Z,3.61
2023-01-19T11:09:18.204Z,3.61
2023-01-19T11:12:23.074Z,3.64
2023-01-19T11:15:40.906Z,3.79
2023-01-19T11:18:43.756Z,3.65
2023-01-19T11:21:45.601Z,3.72
2023-01-19T11:24:48.045Z,3.57
2023-01-19T11:27:51.992Z,3.63
2023-01-19T11:31:14.804Z,3.56
2023-01-19T11:34:38.692Z,3.49
2023-01-19T11:37:43.204Z,3.60
2023-01-19T11:40:53.056Z,3.77
2023-01-19T11:43:58.120Z,3.73
2023-01-19T11:47:06.152Z,3.81
2023-01-19T11:50:31.787Z,3.84
2023-01-19T11:53:34.616Z,3.79
2023-01-19T11:56:36.798Z,3.60
2023-01-19T11:59:38.722Z,3.53
2023-01-19T12:02:47.781Z,3.68
2023-01-19T12:05:53.964Z,3.69
2023-01-19T12:09:03.127Z,3.61
2023-01-19T12:12:08.593Z,3.62
2023-01-19T12:15:38.237Z,3.65
2023-01-19T12:18:45.269Z,3.72
2023-01-19T12:21:48.488Z,3.59
2023-01-19T12:25:01.126Z,3.64
2023-01-19T12:28:03.447Z,3.71
2023-01-19T12:31:05.587Z,3.85
2023-01-19T12:34:39.813Z,3.90
2023-01-19T12:37:43.371Z,3.85
2023-01-19T12:40:45.494Z,3.82
2023-01-19T12:43:49.972Z,3.94
2023-01-19T12:47:04.287Z,4.03
2023-01-19T12:50:16.921Z,4.00
2023-01-19T12:53:21.269Z,4.06
2023-01-19T12:56:36.683Z,3.82
2023-01-19T12:59:39.624Z,3.74
2023-01-19T13:02:44.128Z,3.93
2023-01-19T13:05:56.486Z,4.12
2023-01-19T13:09:00.495Z,3.83
2023-01-19T13:12:14.562Z,3.83
2023-01-19T13:15:35.651Z,3.87
2023-01-19T13:18:41.817Z,4.02
2023-01-19T13:21:48.574Z,3.98
2023-01-19T13:25:11.330Z,4.08
2023-01-19T13:28:16.321Z,4.11
2023-01-19T13:31:19.490Z,4.14
2023-01-19T13:34:25.623Z,4.22
2023-01-19T13:37:35.592Z,4.36
2023-01-19T13:40:39.078Z,4.36
2023-01-19T13:43:42.446Z,4.43
2023-01-19T13:46:46.687Z,4.26
2023-01-19T13:49:55.513Z,4.27
2023-01-19T13:52:59.509Z,4.02
2023-01-19T13:56:17.197Z,4.18
2023-01-19T13:59:19.334Z,4.15
2023-01-19T14:02:21.469Z,3.99
2023-01-19T14:05:34.385Z,4.19
2023-01-19T14:08:36.597Z,4.06
2023-01-19T14:11:38.522Z,4.21
2023-01-19T14:14:46.936Z,3.92
2023-01-19T14:18:08.991Z,3.82
2023-01-19T14:21:13.522Z,3.83
2023-01-19T14:24:19.062Z,4.00
2023-01-19T14:27:24.805Z,3.92
2023-01-19T14:30:27.915Z,3.91
2023-01-19T14:33:40.099Z,3.80
2023-01-19T14:36:44.321Z,3.72
2023-01-19T14:39:49.137Z,4.17
2023-01-19T14:42:57.539Z,4.35
2023-01-19T14:46:45.149Z,4.17
2023-01-19T14:49:48.084Z,4.29
2023-01-19T14:53:00.689Z,4.41
2023-01-19T14:56:05.598Z,4.32
2023-01-19T14:59:10.992Z,4.43
2023-01-19T15:02:13.283Z,4.32
2023-01-19T15:05:15.915Z,4.22
2023-01-19T15:08:25.504Z,4.29
2023-01-19T15:11:31.339Z,4.28
2023-01-19T15:14:33.260Z,4.23
2023-01-19T15:17:35.239Z,4.21
2023-01-19T15:20:37.159Z,4.32
2023-01-19T15:23:39.002Z,4.34
2023-01-19T15:26:42.729Z,4.38
2023-01-19T15:29:46.072Z,4.25
2023-01-19T15:32:48.139Z,4.05
2023-01-19T15:36:05.430Z,4.18
2023-01-19T15:39:07.346Z,4.24
2023-01-19T15:42:15.753Z,4.16
2023-01-19T15:45:34.944Z,4.44
2023-01-19T15:48:37.855Z,4.24
2023-01-19T15:51:39.956Z,4.06
2023-01-19T15:54:41.765Z,4.11
2023-01-19T15:57:43.722Z,4.20
2023-01-19T16:00:45.606Z,4.14
2023-01-19T16:03:48.021Z,4.07
2023-01-19T16:06:50.145Z,4.23
2023-01-19T16:14:17.477Z,4.35
2023-01-19T16:17:20.166Z,4.25
2023-01-19T16:20:22.061Z,4.29
2023-01-19T16:23:24.122Z,4.50
2023-01-19T16:26:28.495Z,4.67
2023-01-19T16:29:31.594Z,4.78
2023-01-19T16:32:35.100Z,4.69
2023-01-19T16:35:36.940Z,4.20
2023-01-19T16:38:38.892Z,3.79
2023-01-19T16:41:41.651Z,3.47
2023-01-19T16:44:43.732Z,3.26
2023-01-19T16:47:50.492Z,3.05
2023-01-19T16:51:12.692Z,2.95
2023-01-19T16:54:17.411Z,2.71
2023-01-19T16:57:19.197Z,3.04
2023-01-19T17:00:21.772Z,3.08
2023-01-19T17:03:23.655Z,2.69
2023-01-19T17:06:26.340Z,2.97
2023-01-19T17:09:29.111Z,3.00
2023-01-19T17:12:32.339Z,2.84
2023-01-19T17:15:34.895Z,2.65
2023-01-19T17:18:37.981Z,2.83
2023-01-19T17:21:39.949Z,2.84
2023-01-19T17:24:43.218Z,2.88
2023-01-19T17:27:45.232Z,2.76
2023-01-19T17:30:48.177Z,2.56
2023-01-19T17:33:50.699Z,2.73
2023-01-19T17:36:53.026Z,2.75
2023-01-19T17:39:56.517Z,2.90
2023-01-19T17:42:58.697Z,2.94
2023-01-19T17:46:00.600Z,2.94
2023-01-19T17:49:05.311Z,2.98
2023-01-19T17:52:07.589Z,3.03
2023-01-19T17:55:10.264Z,3.03
2023-01-19T17:58:12.987Z,3.17
2023-01-19T18:01:26.524Z,3.08
2023-01-19T18:04:29.816Z,2.97
2023-01-19T18:07:33.490Z,3.00
2023-01-19T18:10:35.545Z,3.06
2023-01-19T18:13:38.444Z,3.08
2023-01-19T18:16:40.493Z,2.90
2023-01-19T18:19:42.866Z,3.01
2023-01-19T18:22:44.993Z,3.05
2023-01-19T18:25:47.172Z,3.23
2023-01-19T18:28:49.664Z,3.15
2023-01-19T18:31:52.226Z,3.20
2023-01-19T18:34:54.467Z,3.13
2023-01-19T18:38:32.253Z,3.32
2023-01-19T18:41:37.047Z,3.17
2023-01-19T18:44:39.337Z,2.96
2023-01-19T18:47:41.500Z,3.38
2023-01-19T18:50:43.950Z,3.32
2023-01-19T18:53:46.241Z,3.55
2023-01-19T18:56:50.577Z,3.53
2023-01-19T18:59:52.504Z,3.43
2023-01-19T19:02:55.672Z,3.41
2023-01-19T19:06:02.972Z,3.41
2023-01-19T19:09:05.474Z,3.55
2023-01-19T19:12:09.709Z,3.52
2023-01-19T19:15:13.951Z,3.77
2023-01-19T19:18:16.374Z,3.41
2023-01-19T19:21:19.930Z,3.57
2023-01-19T19:24:22.723Z,3.62
2023-01-19T19:27:24.744Z,3.70
2023-01-19T19:30:27.057Z,3.71
2023-01-19T19:33:29.392Z,3.85
2023-01-19T19:36:32.577Z,3.90
2023-01-19T19:39:35.997Z,3.97
2023-01-19T19:42:39.149Z,4.01
2023-01-19T19:45:41.154Z,3.96
2023-01-19T19:48:43.417Z,4.01
2023-01-19T19:51:45.656Z,4.02
2023-01-19T19:54:48.593Z,4.06
2023-01-19T19:57:50.442Z,4.12
2023-01-19T20:00:53.045Z,3.88
2023-01-19T20:04:03.876Z,3.82
2023-01-19T20:07:06.149Z,3.88
2023-01-19T20:10:08.867Z,3.96
2023-01-19T20:13:12.231Z,3.99
2023-01-19T20:16:19.778Z,3.96
2023-01-19T20:19:21.745Z,4.02
2023-01-19T20:22:24.106Z,4.02
2023-01-19T20:25:26.545Z,4.04
2023-01-19T20:28:28.948Z,4.03
2023-01-19T20:31:32.849Z,4.10
2023-01-19T20:34:35.707Z,4.09
2023-01-19T20:37:37.860Z,4.09
2023-01-19T20:40:40.535Z,4.21
2023-01-19T20:43:42.421Z,4.28
2023-01-19T20:46:44.729Z,4.25
2023-01-19T20:49:46.940Z,4.23
2023-01-19T20:52:50.068Z,4.20
2023-01-19T20:55:52.541Z,4.13
2023-01-19T20:58:54.894Z,4.16
2023-01-19T21:01:57.152Z,4.20
2023-01-19T21:04:59.445Z,4.12
2023-01-19T21:08:01.661Z,4.12
2023-01-19T21:36:53.872Z,4.21
2023-01-19T21:52:11.967Z,4.18
2023-01-19T21:56:17.898Z,4.18
2023-01-19T22:39:06.098Z,4.22
2023-01-19T22:42:07.946Z,4.13
2023-01-19T22:45:10.157Z,4.16
2023-01-19T22:48:12.055Z,4.08
2023-01-19T22:51:14.927Z,4.07
2023-01-19T22:54:16.804Z,3.89
2023-01-19T22:57:18.733Z,3.67
2023-01-19T23:00:21.288Z,3.52
2023-01-19T23:03:23.284Z,3.54
2023-01-19T23:06:27.890Z,3.45
2023-01-19T23:09:29.995Z,3.45
2023-01-19T23:12:32.022Z,3.42
2023-01-19T23:15:34.885Z,3.46
2023-01-19T23:18:37.156Z,3.54
2023-01-19T23:21:39.388Z,3.39
2023-01-19T23:24:41.177Z,3.37
2023-01-19T23:27:43.027Z,3.25
2023-01-19T23:30:44.951Z,3.21
2023-01-19T23:33:46.863Z,3.27
2023-01-19T23:36:48.772Z,3.25
2023-01-19T23:39:50.679Z,3.28
2023-01-19T23:42:54.879Z,3.42
2023-01-19T23:45:56.825Z,3.35
2023-01-19T23:48:59.010Z,3.19
2023-01-19T23:52:00.911Z,3.23
2023-01-19T23:55:02.881Z,3.18
2023-01-19T23:58:05.027Z,3.27
